KSPS

Sheppard AFB / Wichita Falls Municipal Airport

Wichita Falls, Texas, USA
METAR KSPS 211952Z 24016G25KT 10SM FEW030 FEW250 23/03 A2971 RMK AO2 PK WND 22029/1926 SLP053 T02330033
Observed Flight Rules
Jan-21 @ 19:52 UTC (30 minutes ago) Visual Flight Rules
Wind Visibility Clouds
240° at 16 knots
 Gusting to 25 knots
10 miles
  • Few at 3,000' AGL
  • Few at 25,000' AGL
Temperatures Readings
Current 23°C / 73°F
Dewpoint 3°C / 37°F
Humidity 27%
Altimeter 29.71" Hg
Pressure 1005.3 hPa
Elevation 308
METAR KSPS 211952Z 24016G25KT 10SM FEW030 FEW250 23/03 A2971 RMK AO2 PK WND 22029/1926 SLP053 T02330033
Observed Flight Rules
Jan-21 @ 19:52 UTC
(30 minutes ago)
VFR
Wind Visibility
240° at 16 knots
 Gusting to 25 knots
10 miles
Clouds
  • Few at 3,000' AGL
  • Few at 25,000' AGL
Temperature Dewpoint
23°C / 73°F 3°C / 37°F
Humidity Altimeter Pressure
27% 29.71" Hg 1005.3 hPa